Time;durP1;ratioP1;P1;durP2;ratioP2;P2;SDS_P1;SDS_P2;PMS_P1;PMS_P2;Temp;Humidity;BMP_temperature;BMP_pressure;BME280_temperature;BME280_humidity;BME280_pressure;Samples;Min_cycle;Max_cycle;Signal;HPM_P1;HPM_P2
2023/06/07 00:01:47;;;;;;;;;;;;;;;18.08;62.87;99950.75;5091633;28;19912;-41
2023/06/07 00:04:12;;;;;;;;;;;;;;;18.00;63.32;99951.19;5091394;28;19969;-41
2023/06/07 00:06:39;;;;;;;;;;;;;;;18.31;62.53;99953.22;5091422;28;19916;-41
2023/06/07 00:09:08;;;;;;;;;;;;;;;18.11;63.39;99948.38;5091581;28;19912;-41
2023/06/07 00:11:34;;;;;;;;;;;;;;;18.18;63.38;99953.56;5091553;28;19928;-41
2023/06/07 00:13:59;;;;;;;;;;;;;;;18.38;62.83;99955.75;5091482;28;20335;-42
2023/06/07 00:16:26;;;;;;;;;;;;;;;18.66;62.09;99953.94;5091471;28;19912;-41
2023/06/07 00:18:51;;;;;;;;;;;;;;;18.67;62.07;99942.88;5091246;28;19912;-41
2023/06/07 00:21:19;;;;;;;;;;;;;;;18.83;61.50;99943.91;5091400;28;19912;-41
2023/06/07 00:23:45;;;;;;;;;;;;;;;18.98;61.27;99951.31;5091207;28;19912;-41
2023/06/07 00:26:10;;;;;;;;;;;;;;;18.96;61.03;99945.38;5091193;28;19931;-41
2023/06/07 00:28:35;;;;;;;;;;;;;;;18.79;62.41;99944.63;5091381;28;19920;-40
2023/06/07 00:31:01;;;;;;;;;;;;;;;18.82;62.13;99949.56;5090746;28;19924;-41
2023/06/07 00:33:26;;;;;;;;;;;;;;;18.55;62.87;99953.78;5091205;28;20367;-41
2023/06/07 00:35:52;;;;;;;;;;;;;;;18.29;64.19;99960.72;5090977;28;19916;-41
2023/06/07 00:38:17;;;;;;;;;;;;;;;18.54;63.87;99962.97;5091521;28;20278;-41
2023/06/07 00:40:42;;;;;;;;;;;;;;;18.65;63.67;99961.19;5091390;28;19999;-41
2023/06/07 00:43:08;;;;;;;;;;;;;;;18.81;63.39;99966.78;5091335;28;19973;-41
2023/06/07 00:45:33;;;;;;;;;;;;;;;18.86;63.59;99962.25;5091163;28;20023;-41
2023/06/07 00:47:58;;;;;;;;;;;;;;;18.83;63.25;99953.84;5090283;28;19940;-41
2023/06/07 00:50:24;;;;;;;;;;;;;;;18.77;64.12;99950.25;5089760;28;19961;-41
2023/06/07 00:52:49;;;;;;;;;;;;;;;18.93;63.70;99954.00;5089676;28;19912;-41
2023/06/07 00:55:15;;;;;;;;;;;;;;;18.81;64.04;99954.13;5088730;28;20307;-41
2023/06/07 00:57:40;;;;;;;;;;;;;;;18.87;64.06;99949.63;5086764;28;19981;-41
2023/06/07 01:00:09;;;;;;;;;;;;;;;18.61;64.98;99946.59;5091168;28;20006;-42
2023/06/07 01:02:35;;;;;;;;;;;;;;;18.65;65.17;99947.72;5090893;28;20253;-41
2023/06/07 01:05:02;;;;;;;;;;;;;;;18.67;65.48;99945.56;5090590;28;20031;-41
2023/06/07 01:07:28;;;;;;;;;;;;;;;18.69;65.46;99948.03;5094991;28;20002;-41
2023/06/07 01:09:53;;;;;;;;;;;;;;;18.47;66.05;99951.53;5094996;28;20317;-41
2023/06/07 01:12:19;;;;;;;;;;;;;;;18.72;65.58;99942.94;5094730;28;19996;-41
2023/06/07 01:14:48;;;;;;;;;;;;;;;18.83;65.08;99935.00;5095103;28;19961;-41
2023/06/07 01:17:14;;;;;;;;;;;;;;;18.97;64.76;99946.22;5094609;28;19912;-42
2023/06/07 01:19:42;;;;;;;;;;;;;;;19.11;64.53;99937.47;5094734;28;19995;-41
2023/06/07 01:22:09;;;;;;;;;;;;;;;18.98;64.76;99942.44;5094486;28;19912;-41
2023/06/07 01:24:39;;;;;;;;;;;;;;;18.92;65.08;99937.00;5094534;28;19916;-41
2023/06/07 01:27:07;;;;;;;;;;;;;;;19.07;64.88;99951.69;5090653;28;19924;-41
2023/06/07 01:29:33;;;;;;;;;;;;;;;19.19;64.91;99938.88;5093660;28;19916;-41
2023/06/07 01:32:00;;;;;;;;;;;;;;;19.03;65.21;99945.19;5094293;28;19922;-41
2023/06/07 01:34:26;;;;;;;;;;;;;;;19.09;65.35;99942.28;5094145;28;20355;-41
2023/06/07 01:36:52;;;;;;;;;;;;;;;19.03;65.17;99947.88;5094432;28;19944;-42
2023/06/07 01:39:18;;;;;;;;;;;;;;;18.67;66.64;99947.47;5094374;28;20019;-42
2023/06/07 01:41:44;;;;;;;;;;;;;;;18.60;67.23;99942.28;5094338;28;19912;-42
2023/06/07 01:44:11;;;;;;;;;;;;;;;18.59;67.61;99937.13;5094227;28;19971;-42
2023/06/07 01:46:36;;;;;;;;;;;;;;;18.67;67.59;99932.09;5094208;28;19931;-42
2023/06/07 01:49:03;;;;;;;;;;;;;;;18.59;68.17;99937.13;5093882;28;19997;-42
2023/06/07 01:51:28;;;;;;;;;;;;;;;18.48;68.83;99936.19;5094165;28;19921;-42
2023/06/07 01:53:54;;;;;;;;;;;;;;;18.60;68.93;99931.50;5093501;28;19916;-42
2023/06/07 01:56:19;;;;;;;;;;;;;;;18.24;70.00;99939.13;5093799;28;20017;-42
2023/06/07 01:59:03;;;;;;;;;;;;;;;18.02;71.34;99943.66;5093734;28;19919;-42
2023/06/07 02:01:37;;;;;;;;;;;;;;;17.81;72.22;99942.53;5092965;28;19919;-42
2023/06/07 02:04:04;;;;;;;;;;;;;;;18.02;71.96;99951.75;5094100;28;20353;-42
2023/06/07 02:06:32;;;;;;;;;;;;;;;17.97;72.84;99947.09;5092066;28;19923;-42
2023/06/07 02:09:00;;;;;;;;;;;;;;;17.95;73.23;99949.22;5093728;28;20290;-42
2023/06/07 02:11:26;;;;;;;;;;;;;;;17.78;74.60;99950.03;5093980;28;19968;-42
2023/06/07 02:13:53;;;;;;;;;;;;;;;17.46;76.56;99947.09;5093664;28;20002;-42
2023/06/07 02:16:32;;;;;;;;;;;;;;;17.83;75.54;99953.84;5093236;28;19912;-42
2023/06/07 02:18:58;;;;;;;;;;;;;;;18.01;74.34;99959.03;5093757;28;19912;-42
2023/06/07 02:21:24;;;;;;;;;;;;;;;17.82;75.38;99953.06;5093691;28;19912;-42
2023/06/07 02:23:50;;;;;;;;;;;;;;;18.02;75.30;99952.56;5093305;28;20358;-42
2023/06/07 02:26:16;;;;;;;;;;;;;;;17.83;76.27;99946.59;5092904;28;19916;-41
2023/06/07 02:28:41;;;;;;;;;;;;;;;18.23;74.93;99948.25;5093487;28;19951;-42
2023/06/07 02:31:06;;;;;;;;;;;;;;;18.32;74.71;99945.97;5093146;28;20004;-42
2023/06/07 02:33:32;;;;;;;;;;;;;;;18.42;74.00;99947.97;5093182;28;20004;-41
2023/06/07 02:35:58;;;;;;;;;;;;;;;18.49;73.84;99948.59;5093139;28;19912;-42
2023/06/07 02:38:23;;;;;;;;;;;;;;;18.42;73.64;99945.28;5093286;28;19946;-42
2023/06/07 02:40:48;;;;;;;;;;;;;;;18.02;75.62;99947.16;5093208;28;20344;-41
2023/06/07 02:43:14;;;;;;;;;;;;;;;18.31;74.40;99958.59;5093306;28;19912;-41
2023/06/07 02:45:39;;;;;;;;;;;;;;;18.38;74.43;99949.53;5093124;28;19922;-41
2023/06/07 02:48:06;;;;;;;;;;;;;;;18.27;74.92;99952.09;5093028;28;19969;-41
2023/06/07 02:50:31;;;;;;;;;;;;;;;18.45;73.64;99942.91;5093312;28;19912;-44
2023/06/07 02:52:56;;;;;;;;;;;;;;;18.45;73.99;99948.28;5093447;28;19995;-41
2023/06/07 02:55:22;;;;;;;;;;;;;;;18.70;72.87;99953.16;5092895;28;20441;-41
2023/06/07 02:57:47;;;;;;;;;;;;;;;18.10;75.01;99946.72;5092913;28;20294;-41
2023/06/07 03:00:12;;;;;;;;;;;;;;;18.12;75.78;99952.69;5092587;28;19912;-41
2023/06/07 03:02:38;;;;;;;;;;;;;;;18.16;75.74;99947.63;5092626;28;19918;-41
2023/06/07 03:05:04;;;;;;;;;;;;;;;18.28;75.12;99948.34;5092745;28;19916;-41
2023/06/07 03:07:29;;;;;;;;;;;;;;;18.35;75.06;99951.66;5092560;28;20428;-41
2023/06/07 03:09:54;;;;;;;;;;;;;;;18.38;74.42;99941.47;5092453;28;19969;-42
2023/06/07 03:12:20;;;;;;;;;;;;;;;18.32;75.36;99944.06;5092369;28;20006;-41
2023/06/07 03:14:45;;;;;;;;;;;;;;;18.34;75.00;99931.16;5092766;28;19962;-41
2023/06/07 03:17:11;;;;;;;;;;;;;;;18.47;74.13;99942.66;5092322;28;20285;-42
2023/06/07 03:19:37;;;;;;;;;;;;;;;18.41;74.31;99936.38;5092291;28;19982;-41
2023/06/07 03:22:02;;;;;;;;;;;;;;;18.27;75.08;99951.28;5092430;28;19945;-41
2023/06/07 03:24:30;;;;;;;;;;;;;;;18.32;74.79;99936.00;5125077;27;19912;-41
2023/06/07 03:26:57;;;;;;;;;;;;;;;18.59;73.80;99950.59;5092347;28;19913;-41
2023/06/07 03:29:22;;;;;;;;;;;;;;;18.57;74.01;99942.78;5091513;28;20394;-36
2023/06/07 03:31:48;;;;;;;;;;;;;;;18.85;72.79;99944.47;5092081;28;19951;-36
2023/06/07 03:34:13;;;;;;;;;;;;;;;18.93;72.14;99941.31;5091933;28;19912;-36
2023/06/07 03:36:40;;;;;;;;;;;;;;;19.01;71.29;99945.44;5092033;28;19912;-36
2023/06/07 03:39:05;;;;;;;;;;;;;;;18.99;71.82;99947.56;5092179;28;19912;-35
2023/06/07 03:41:31;;;;;;;;;;;;;;;19.00;71.76;99948.38;5092257;28;19935;-36
2023/06/07 03:43:56;;;;;;;;;;;;;;;19.13;71.18;99940.72;5091942;28;20010;-36
2023/06/07 03:46:21;;;;;;;;;;;;;;;19.27;70.52;99951.91;5091761;28;20003;-36
2023/06/07 03:48:46;;;;;;;;;;;;;;;18.97;71.63;99944.31;5092026;28;19912;-37
2023/06/07 03:51:12;;;;;;;;;;;;;;;19.34;70.45;99947.13;5091874;28;19920;-36
2023/06/07 03:53:38;;;;;;;;;;;;;;;19.43;69.82;99941.22;5091866;28;19916;-36
2023/06/07 03:56:04;;;;;;;;;;;;;;;19.37;69.73;99950.38;5091633;28;19962;-36
2023/06/07 03:58:30;;;;;;;;;;;;;;;19.59;69.10;99950.25;5091114;28;19912;-36
2023/06/07 04:00:55;;;;;;;;;;;;;;;19.89;68.02;99947.81;5091759;28;20047;-36
2023/06/07 04:03:28;;;;;;;;;;;;;;;20.22;67.10;99948.56;5091393;28;19916;-42
2023/06/07 04:05:56;;;;;;;;;;;;;;;20.45;65.75;99949.22;5091229;28;19923;-42
2023/06/07 04:08:22;;;;;;;;;;;;;;;20.40;66.14;99949.19;5091725;28;19912;-40
2023/06/07 04:10:48;;;;;;;;;;;;;;;20.37;65.74;99944.28;5091712;28;19935;-41
2023/06/07 04:13:13;;;;;;;;;;;;;;;20.87;63.74;99943.69;5091646;28;19951;-42
2023/06/07 04:15:39;;;;;;;;;;;;;;;21.13;62.72;99951.03;5091326;28;19981;-36
2023/06/07 04:18:04;;;;;;;;;;;;;;;20.97;63.10;99947.50;5091368;28;19941;-36
2023/06/07 04:20:29;;;;;;;;;;;;;;;21.11;63.26;99945.91;5091411;28;19984;-41
2023/06/07 04:22:55;;;;;;;;;;;;;;;20.95;62.51;99945.06;5091609;28;20021;-41
2023/06/07 04:25:24;;;;;;;;;;;;;;;21.03;62.88;99939.13;5091247;28;20405;-41
2023/06/07 04:27:49;;;;;;;;;;;;;;;21.57;61.58;99947.84;5091255;28;19991;-42
2023/06/07 04:30:18;;;;;;;;;;;;;;;21.98;60.56;99950.53;5090810;28;19927;-36
2023/06/07 04:32:46;;;;;;;;;;;;;;;22.08;58.91;99947.78;5091359;28;20304;-36
2023/06/07 04:35:14;;;;;;;;;;;;;;;22.37;57.88;99948.00;5090929;28;20000;-41
2023/06/07 04:37:45;;;;;;;;;;;;;;;22.81;57.08;99947.25;5090709;28;20322;-42
2023/06/07 04:40:10;;;;;;;;;;;;;;;23.12;55.46;99955.25;5092757;28;19959;-41
2023/06/07 04:42:38;;;;;;;;;;;;;;;22.87;55.92;99956.19;5094725;28;19967;-42
2023/06/07 04:45:04;;;;;;;;;;;;;;;23.14;54.59;99953.06;5094929;28;19920;-41
2023/06/07 04:47:30;;;;;;;;;;;;;;;23.01;55.23;99957.16;5093281;28;20398;-42
2023/06/07 04:49:55;;;;;;;;;;;;;;;21.72;58.98;99958.66;5094692;28;19912;-42
2023/06/07 04:52:21;;;;;;;;;;;;;;;21.31;60.39;99957.84;5093145;28;19923;-41
2023/06/07 04:54:46;;;;;;;;;;;;;;;21.24;61.24;99958.91;5093380;28;20380;-41
2023/06/07 04:57:12;;;;;;;;;;;;;;;21.35;60.94;99961.63;5088606;28;19916;-41
2023/06/07 04:59:42;;;;;;;;;;;;;;;21.13;61.19;99962.66;5093475;28;19916;-36
2023/06/07 05:02:08;;;;;;;;;;;;;;;21.53;61.25;99958.41;5094048;28;20348;-36
2023/06/07 05:04:33;;;;;;;;;;;;;;;21.58;60.81;99963.81;5094152;28;19978;-37
2023/06/07 05:06:58;;;;;;;;;;;;;;;22.01;59.59;99971.66;5093478;28;19955;-36
2023/06/07 05:09:24;;;;;;;;;;;;;;;22.10;58.96;99964.56;5094293;28;19963;-37
2023/06/07 05:11:49;;;;;;;;;;;;;;;20.84;62.44;99965.06;5088352;28;19920;-42
2023/06/07 05:14:15;;;;;;;;;;;;;;;20.40;64.82;99962.69;5093610;28;20411;-36
2023/06/07 05:16:43;;;;;;;;;;;;;;;20.63;64.01;99961.47;5094496;28;19916;-38
2023/06/07 05:19:08;;;;;;;;;;;;;;;21.43;61.11;99969.22;5093899;28;20110;-37
2023/06/07 05:21:35;;;;;;;;;;;;;;;21.56;60.91;99965.19;5091603;28;20125;-36
2023/06/07 05:24:00;;;;;;;;;;;;;;;22.20;58.24;99969.97;5091848;28;19932;-37
2023/06/07 05:26:25;;;;;;;;;;;;;;;21.64;60.11;99962.72;5093883;28;19923;-37
2023/06/07 05:28:51;;;;;;;;;;;;;;;21.82;58.54;99974.13;5093902;28;20003;-38
2023/06/07 05:31:18;;;;;;;;;;;;;;;21.91;58.57;99977.88;5093854;28;20029;-41
2023/06/07 05:33:44;;;;;;;;;;;;;;;21.79;58.35;99972.75;5093766;28;19999;-37
2023/06/07 05:36:11;;;;;;;;;;;;;;;21.70;58.59;99960.84;5093742;28;20117;-37
2023/06/07 05:38:36;;;;;;;;;;;;;;;21.85;58.98;99962.72;5092171;28;19919;-36
2023/06/07 05:41:02;;;;;;;;;;;;;;;21.79;58.97;99969.25;5093393;28;20268;-37
2023/06/07 05:43:27;;;;;;;;;;;;;;;21.29;60.79;99961.63;5092639;28;19920;-37
2023/06/07 05:45:52;;;;;;;;;;;;;;;20.98;60.83;99965.34;5093243;28;20010;-41
2023/06/07 05:48:18;;;;;;;;;;;;;;;21.08;61.95;99958.06;5093139;28;19912;-41
2023/06/07 05:50:43;;;;;;;;;;;;;;;22.08;58.89;99971.38;5087908;28;19966;-41
2023/06/07 05:53:08;;;;;;;;;;;;;;;22.19;58.01;99967.53;5075867;28;19928;-41
2023/06/07 05:55:34;;;;;;;;;;;;;;;22.70;55.83;99966.59;5072283;28;20376;-41
2023/06/07 05:58:03;;;;;;;;;;;;;;;22.24;56.96;99971.06;5071897;28;19916;-41
2023/06/07 06:00:29;;;;;;;;;;;;;;;22.15;57.23;99970.00;5073053;28;19995;-42
2023/06/07 06:02:54;;;;;;;;;;;;;;;22.31;57.23;99967.25;5072016;28;20376;-42
2023/06/07 06:05:27;;;;;;;;;;;;;;;22.48;56.17;99956.09;5071575;28;20296;-42
2023/06/07 06:07:52;;;;;;;;;;;;;;;22.73;55.66;99974.97;5072743;28;19912;-42
2023/06/07 06:10:18;;;;;;;;;;;;;;;22.59;55.56;99976.66;5072735;28;19912;-42
2023/06/07 06:12:43;;;;;;;;;;;;;;;22.03;56.34;99972.19;5072864;28;19922;-42
2023/06/07 06:15:09;;;;;;;;;;;;;;;23.01;55.02;99967.22;5072637;28;19916;-41
2023/06/07 06:17:34;;;;;;;;;;;;;;;23.55;53.12;99965.50;5072759;28;19912;-43
2023/06/07 06:19:59;;;;;;;;;;;;;;;24.52;50.53;99967.31;5072656;28;19924;-42
2023/06/07 06:22:25;;;;;;;;;;;;;;;23.97;51.47;99964.06;5072705;28;19916;-43
2023/06/07 06:24:50;;;;;;;;;;;;;;;23.76;51.72;99963.41;5072442;28;19974;-42
2023/06/07 06:27:16;;;;;;;;;;;;;;;23.93;50.97;99969.28;5072616;28;20007;-42
2023/06/07 06:29:41;;;;;;;;;;;;;;;24.56;49.54;99949.28;5072283;28;19927;-42
2023/06/07 06:32:07;;;;;;;;;;;;;;;25.07;48.41;99952.41;5072319;28;20372;-42
2023/06/07 06:34:32;;;;;;;;;;;;;;;25.14;48.23;99959.09;5072400;28;19924;-41
2023/06/07 06:36:57;;;;;;;;;;;;;;;24.91;48.59;99954.53;5072371;28;20192;-42
2023/06/07 06:39:26;;;;;;;;;;;;;;;25.16;47.95;99956.06;5071990;28;19916;-42
2023/06/07 06:41:51;;;;;;;;;;;;;;;24.98;47.69;99958.53;5072279;28;19991;-43
2023/06/07 06:44:17;;;;;;;;;;;;;;;24.64;49.26;99957.91;5072357;28;20498;-42
2023/06/07 06:46:42;;;;;;;;;;;;;;;24.43;49.29;99951.88;5072044;28;19924;-42
2023/06/07 06:49:08;;;;;;;;;;;;;;;24.24;48.97;99959.97;5072143;28;20149;-42
2023/06/07 06:51:33;;;;;;;;;;;;;;;23.97;49.55;99954.00;5072231;28;19919;-42
2023/06/07 06:53:58;;;;;;;;;;;;;;;23.71;51.29;99958.03;5071903;28;19919;-43
2023/06/07 06:56:23;;;;;;;;;;;;;;;23.71;51.21;99952.63;5071927;28;20356;-43
2023/06/07 06:58:49;;;;;;;;;;;;;;;23.87;51.43;99954.09;5071995;28;19923;-43
2023/06/07 07:01:15;;;;;;;;;;;;;;;23.59;51.75;99953.00;5072323;28;20023;-40
2023/06/07 07:03:40;;;;;;;;;;;;;;;23.08;52.84;99954.19;5071708;28;19912;-42
2023/06/07 07:06:07;;;;;;;;;;;;;;;23.34;52.64;99954.81;5071439;28;19986;-42
2023/06/07 07:08:33;;;;;;;;;;;;;;;23.24;52.67;99952.16;5071571;28;20370;-42
2023/06/07 07:10:58;;;;;;;;;;;;;;;23.75;52.07;99956.38;5071863;28;19913;-42
2023/06/07 07:13:23;;;;;;;;;;;;;;;24.22;50.71;99956.72;5071703;28;19912;-43
2023/06/07 07:15:49;;;;;;;;;;;;;;;24.14;50.68;99952.75;5071703;28;20403;-44
2023/06/07 07:18:14;;;;;;;;;;;;;;;24.29;50.24;99947.13;5071658;28;19912;-43
2023/06/07 07:20:39;;;;;;;;;;;;;;;24.89;48.71;99952.13;5071633;28;20481;-41
2023/06/07 07:23:05;;;;;;;;;;;;;;;24.66;48.48;99953.00;5071477;28;19912;-43
2023/06/07 07:25:30;;;;;;;;;;;;;;;24.57;49.15;99950.09;5071536;28;19994;-44
2023/06/07 07:27:55;;;;;;;;;;;;;;;25.34;47.29;99938.13;5071272;28;19912;-43
2023/06/07 07:30:21;;;;;;;;;;;;;;;25.70;45.95;99943.78;5071079;28;19924;-44
2023/06/07 07:32:46;;;;;;;;;;;;;;;25.61;46.69;99942.84;5071046;28;20296;-42
2023/06/07 07:35:11;;;;;;;;;;;;;;;25.86;45.38;99946.25;5087164;28;19932;-42
2023/06/07 07:37:38;;;;;;;;;;;;;;;25.67;45.14;99943.59;5071463;28;19975;-43
2023/06/07 07:40:05;;;;;;;;;;;;;;;26.07;43.92;99950.22;5071265;28;19999;-42
2023/06/07 07:42:30;;;;;;;;;;;;;;;26.00;44.49;99949.81;5071326;28;19935;-41
2023/06/07 07:44:56;;;;;;;;;;;;;;;26.80;44.12;99941.41;5070873;28;20380;-42
2023/06/07 07:47:21;;;;;;;;;;;;;;;27.47;42.55;99946.13;5071240;28;19924;-44
2023/06/07 07:49:47;;;;;;;;;;;;;;;26.21;43.69;99952.94;5071168;28;19956;-42
2023/06/07 07:52:12;;;;;;;;;;;;;;;26.34;43.37;99943.16;5070699;28;20369;-42
2023/06/07 07:54:38;;;;;;;;;;;;;;;27.00;43.68;99940.16;5070704;28;19919;-44
2023/06/07 07:57:04;;;;;;;;;;;;;;;27.54;42.74;99941.03;5070799;28;19959;-41
2023/06/07 07:59:29;;;;;;;;;;;;;;;28.43;40.95;99935.66;5070681;28;20394;-42
2023/06/07 08:01:55;;;;;;;;;;;;;;;28.04;40.84;99932.63;5071004;28;19973;-43
2023/06/07 08:04:21;;;;;;;;;;;;;;;27.52;41.11;99937.00;5070824;28;19919;-42
2023/06/07 08:06:46;;;;;;;;;;;;;;;27.04;41.84;99935.69;5070494;28;20327;-44
2023/06/07 08:09:11;;;;;;;;;;;;;;;27.56;41.10;99929.78;5070745;28;19923;-42
2023/06/07 08:11:37;;;;;;;;;;;;;;;27.22;41.83;99933.88;5070666;28;19916;-43
2023/06/07 08:14:02;;;;;;;;;;;;;;;26.97;41.99;99938.03;5070235;28;19917;-43
2023/06/07 08:16:27;;;;;;;;;;;;;;;27.47;41.19;99925.09;5070645;28;20007;-41
2023/06/07 08:18:56;;;;;;;;;;;;;;;27.57;40.79;99934.13;5070499;28;19919;-42
2023/06/07 08:21:22;;;;;;;;;;;;;;;26.50;43.29;99935.44;5070717;28;20006;-42
2023/06/07 08:23:47;;;;;;;;;;;;;;;27.45;41.58;99923.78;5070290;28;19952;-43
2023/06/07 08:26:13;;;;;;;;;;;;;;;27.95;40.69;99922.78;5070097;28;19924;-43
2023/06/07 08:28:38;;;;;;;;;;;;;;;26.53;42.19;99932.13;5070840;28;20066;-42
2023/06/07 08:31:03;;;;;;;;;;;;;;;26.65;42.76;99924.25;5070146;28;19928;-43
2023/06/07 08:33:29;;;;;;;;;;;;;;;27.51;41.06;99930.72;5070162;28;19912;-43
2023/06/07 08:35:54;;;;;;;;;;;;;;;28.14;40.12;99923.34;5070039;28;20222;-42
2023/06/07 08:38:19;;;;;;;;;;;;;;;28.41;39.34;99927.75;5070107;28;19985;-41
2023/06/07 08:40:45;;;;;;;;;;;;;;;28.16;40.28;99917.53;5070516;28;20006;-42
2023/06/07 08:43:10;;;;;;;;;;;;;;;29.17;38.70;99917.56;5070348;28;20354;-41
2023/06/07 08:45:36;;;;;;;;;;;;;;;27.54;40.11;99926.56;5070147;28;19917;-43
2023/06/07 08:48:06;;;;;;;;;;;;;;;26.58;42.57;99920.28;5070319;28;19913;-44
2023/06/07 08:50:32;;;;;;;;;;;;;;;27.61;40.97;99919.53;5070297;28;19912;-43
2023/06/07 08:53:02;;;;;;;;;;;;;;;27.15;41.68;99923.41;5070224;28;19917;-43
2023/06/07 08:55:27;;;;;;;;;;;;;;;27.19;41.97;99926.28;5070183;28;20293;-44
2023/06/07 08:57:55;;;;;;;;;;;;;;;27.16;42.41;99918.75;5069826;28;19912;-42
2023/06/07 09:00:23;;;;;;;;;;;;;;;26.68;42.37;99915.44;5084399;28;19952;-43
2023/06/07 09:02:51;;;;;;;;;;;;;;;27.67;40.22;99915.53;5088191;28;19913;-43
2023/06/07 09:05:17;;;;;;;;;;;;;;;26.97;40.40;99921.63;5090815;28;19977;-43
2023/06/07 09:07:42;;;;;;;;;;;;;;;26.96;40.76;99909.91;5090515;28;20003;-42
2023/06/07 09:10:08;;;;;;;;;;;;;;;27.10;40.58;99905.19;5090482;28;19919;-41
2023/06/07 09:12:33;;;;;;;;;;;;;;;27.29;40.90;99913.22;5090315;28;19919;-41
2023/06/07 09:14:58;;;;;;;;;;;;;;;27.14;41.09;99905.38;5090510;28;20075;-43
2023/06/07 09:17:24;;;;;;;;;;;;;;;27.72;40.28;99900.13;5090440;28;19912;-41
2023/06/07 09:19:50;;;;;;;;;;;;;;;28.50;39.61;99894.13;5090280;28;20361;-41
2023/06/07 09:22:22;;;;;;;;;;;;;;;28.82;38.08;99893.69;5090317;28;19912;-42
2023/06/07 09:24:47;;;;;;;;;;;;;;;29.08;37.56;99892.09;5090224;28;20006;-42
2023/06/07 09:27:13;;;;;;;;;;;;;;;29.22;36.81;99887.25;5092442;28;20419;-42
2023/06/07 09:29:39;;;;;;;;;;;;;;;28.80;37.86;99892.41;5094060;28;19916;-44
2023/06/07 09:32:25;;;;;;;;;;;;;;;29.28;37.23;99888.69;5093825;28;19923;-43
2023/06/07 09:34:52;;;;;;;;;;;;;;;28.59;37.46;99889.50;5091867;28;19912;-43
2023/06/07 09:37:20;;;;;;;;;;;;;;;28.01;38.10;99891.44;5092682;28;19924;-43
2023/06/07 09:39:46;;;;;;;;;;;;;;;27.83;38.51;99899.53;5093531;28;20330;-43
2023/06/07 09:42:18;;;;;;;;;;;;;;;27.97;38.48;99890.44;5093868;28;19916;-43
2023/06/07 09:44:43;;;;;;;;;;;;;;;28.23;38.13;99885.06;5083390;28;20007;-43
2023/06/07 09:47:21;;;;;;;;;;;;;;;28.14;38.38;99876.84;5089179;28;19932;-42
2023/06/07 09:49:47;;;;;;;;;;;;;;;28.32;37.79;99885.09;5093412;28;19961;-41
2023/06/07 09:52:16;;;;;;;;;;;;;;;28.88;36.82;99874.38;5093622;28;19916;-42
2023/06/07 09:54:42;;;;;;;;;;;;;;;28.93;36.11;99871.47;5093620;28;19915;-43
2023/06/07 09:57:09;;;;;;;;;;;;;;;27.14;39.76;99878.06;5093037;28;19923;-41
2023/06/07 09:59:35;;;;;;;;;;;;;;;27.36;39.12;99869.09;5091887;28;19912;-43
2023/06/07 10:02:00;;;;;;;;;;;;;;;27.55;39.11;99870.78;5092794;28;19923;-42
2023/06/07 10:04:26;;;;;;;;;;;;;;;28.30;38.46;99869.00;5091886;28;19942;-42
2023/06/07 10:06:54;;;;;;;;;;;;;;;28.50;37.68;99866.75;5092113;28;19982;-42
2023/06/07 10:09:20;;;;;;;;;;;;;;;28.51;36.43;99868.38;5092446;28;19998;-43
2023/06/07 10:11:48;;;;;;;;;;;;;;;28.77;36.64;99861.00;5091993;28;20271;-43
2023/06/07 10:14:18;;;;;;;;;;;;;;;28.93;36.31;99853.09;5092140;28;20381;-42
2023/06/07 10:16:46;;;;;;;;;;;;;;;28.25;36.77;99855.44;5092167;28;19912;-43
2023/06/07 10:19:18;;;;;;;;;;;;;;;28.49;36.59;99852.28;5092075;28;19980;-42
2023/06/07 10:21:45;;;;;;;;;;;;;;;28.60;35.97;99861.81;5092988;28;19912;-42
2023/06/07 10:24:13;;;;;;;;;;;;;;;28.38;36.72;99854.50;5092842;28;19925;-41
2023/06/07 10:26:42;;;;;;;;;;;;;;;28.64;35.95;99857.31;5092913;28;20015;-40
2023/06/07 10:29:08;;;;;;;;;;;;;;;28.00;36.07;99862.47;5092889;28;20014;-43
2023/06/07 10:31:36;;;;;;;;;;;;;;;27.49;37.88;99862.75;5092668;28;19924;-41
2023/06/07 10:34:07;;;;;;;;;;;;;;;28.40;36.31;99848.72;5092316;28;19916;-42
2023/06/07 10:36:36;;;;;;;;;;;;;;;29.60;34.21;99848.13;5092779;28;19998;-43
2023/06/07 10:39:02;;;;;;;;;;;;;;;29.65;33.91;99838.94;5092234;28;19912;-45
2023/06/07 10:41:28;;;;;;;;;;;;;;;29.68;34.63;99844.53;5092555;28;19981;-43
2023/06/07 10:43:54;;;;;;;;;;;;;;;29.38;33.85;99843.72;5092386;28;20276;-42
2023/06/07 10:46:20;;;;;;;;;;;;;;;28.73;34.12;99848.28;5092267;28;20022;-43
2023/06/07 10:48:46;;;;;;;;;;;;;;;28.22;34.58;99834.22;5092492;28;19912;-44
2023/06/07 10:51:11;;;;;;;;;;;;;;;28.57;34.06;99837.00;5092516;28;19919;-42
2023/06/07 10:53:54;;;;;;;;;;;;;;;29.33;33.60;99846.63;5092357;28;19935;-43
2023/06/07 10:56:26;;;;;;;;;;;;;;;29.16;34.60;99844.72;5092031;28;19960;-42
2023/06/07 10:58:51;;;;;;;;;;;;;;;28.14;36.56;99838.56;5092164;28;19940;-42
2023/06/07 11:01:26;;;;;;;;;;;;;;;29.05;34.62;99833.25;5092014;28;19912;-43
2023/06/07 11:03:52;;;;;;;;;;;;;;;27.77;36.67;99837.13;5091997;28;19919;-43
2023/06/07 11:06:17;;;;;;;;;;;;;;;28.91;35.06;99833.44;5091791;28;19917;-43
2023/06/07 11:08:43;;;;;;;;;;;;;;;30.17;33.36;99842.22;5091934;28;19996;-45
2023/06/07 11:11:43;;;;;;;;;;;;;;;30.04;33.00;99835.03;5092374;28;19916;-44
2023/06/07 11:14:10;;;;;;;;;;;;;;;29.70;33.84;99828.59;5069521;28;19912;-42
2023/06/07 11:16:36;;;;;;;;;;;;;;;29.22;34.24;99816.81;5087243;28;20345;-42
2023/06/07 11:19:05;;;;;;;;;;;;;;;28.46;36.68;99820.91;5092102;28;20017;-44
2023/06/07 11:21:50;;;;;;;;;;;;;;;29.17;35.98;99814.25;5091751;28;19919;-43
2023/06/07 11:24:16;;;;;;;;;;;;;;;29.17;34.76;99817.00;5091806;28;19923;-42
2023/06/07 11:26:41;;;;;;;;;;;;;;;28.88;36.26;99811.38;5091551;28;19916;-40
2023/06/07 11:29:10;;;;;;;;;;;;;;;28.69;36.85;99801.56;5092026;28;19985;-43
2023/06/07 11:31:35;;;;;;;;;;;;;;;29.41;35.39;99801.94;5091480;28;19924;-42
2023/06/07 11:34:01;;;;;;;;;;;;;;;29.04;35.77;99798.78;5091235;28;19912;-42
2023/06/07 11:36:29;;;;;;;;;;;;;;;28.88;35.79;99798.47;5091573;28;19959;-43
2023/06/07 11:38:56;;;;;;;;;;;;;;;29.86;33.70;99795.94;5091267;28;19918;-43
2023/06/07 11:41:23;;;;;;;;;;;;;;;30.28;33.25;99779.50;5090006;28;19959;-42
2023/06/07 11:43:49;;;;;;;;;;;;;;;30.88;32.97;99785.63;5091399;28;20344;-43
2023/06/07 11:46:15;;;;;;;;;;;;;;;30.80;32.04;99783.75;5091212;28;19932;-43
2023/06/07 11:48:41;;;;;;;;;;;;;;;30.93;32.47;99776.41;5090494;28;19997;-44
2023/06/07 11:51:06;;;;;;;;;;;;;;;30.92;31.97;99772.84;5091110;28;19918;-42
2023/06/07 11:53:32;;;;;;;;;;;;;;;31.31;32.27;99775.31;5090974;28;19912;-42
2023/06/07 11:56:01;;;;;;;;;;;;;;;30.39;32.27;99768.97;5090560;28;19912;-43
2023/06/07 11:58:26;;;;;;;;;;;;;;;30.02;33.78;99775.03;5091086;28;19919;-44
2023/06/07 12:00:52;;;;;;;;;;;;;;;29.98;34.32;99770.53;5090755;28;19912;-42
2023/06/07 12:03:20;;;;;;;;;;;;;;;30.33;33.48;99768.38;5090669;28;19916;-45
2023/06/07 12:05:46;;;;;;;;;;;;;;;31.02;32.84;99763.38;5091033;28;19916;-42
2023/06/07 12:08:13;;;;;;;;;;;;;;;29.89;32.75;99756.06;5091149;28;19923;-43
2023/06/07 12:10:38;;;;;;;;;;;;;;;29.73;33.82;99766.81;5090963;28;20380;-42
2023/06/07 12:13:04;;;;;;;;;;;;;;;29.60;33.44;99761.19;5090777;28;19923;-40
2023/06/07 12:15:30;;;;;;;;;;;;;;;29.74;32.51;99751.97;5090962;28;19912;-43
2023/06/07 12:17:55;;;;;;;;;;;;;;;28.63;34.14;99750.88;5090965;28;19996;-43
2023/06/07 12:20:20;;;;;;;;;;;;;;;29.36;33.14;99750.03;5091282;28;19962;-45
2023/06/07 12:22:46;;;;;;;;;;;;;;;29.04;34.06;99735.81;5090982;28;19918;-43
2023/06/07 12:25:14;;;;;;;;;;;;;;;28.93;34.14;99740.81;5090861;28;20011;-45
2023/06/07 12:27:44;;;;;;;;;;;;;;;27.95;36.93;99747.78;5090768;28;19916;-43
2023/06/07 12:30:09;;;;;;;;;;;;;;;29.18;35.04;99736.41;5090295;28;19973;-44
2023/06/07 12:32:34;;;;;;;;;;;;;;;28.70;33.83;99729.28;5090095;28;19924;-42
2023/06/07 12:35:05;;;;;;;;;;;;;;;28.42;35.79;99718.66;5090576;28;19978;-41
2023/06/07 12:37:37;;;;;;;;;;;;;;;29.08;35.43;99727.72;5090616;28;19991;-42
2023/06/07 12:40:07;;;;;;;;;;;;;;;29.08;35.82;99725.78;5090192;28;19935;-42
2023/06/07 12:42:32;;;;;;;;;;;;;;;29.60;34.89;99711.06;5090533;28;19919;-44
2023/06/07 12:44:58;;;;;;;;;;;;;;;29.77;34.20;99710.19;5090414;28;20303;-42